sensor_id;sensor_type;location;lat;lon;timestamp;temperature;humidity
20658;DHT22;10488;50.846;4.078;2023-03-12T00:01:38;5.50;99.90
20658;DHT22;10488;50.846;4.078;2023-03-12T00:04:04;5.40;99.90
20658;DHT22;10488;50.846;4.078;2023-03-12T00:06:30;5.40;99.90
20658;DHT22;10488;50.846;4.078;2023-03-12T00:08:57;5.40;99.90
20658;DHT22;10488;50.846;4.078;2023-03-12T00:11:22;5.30;99.90
20658;DHT22;10488;50.846;4.078;2023-03-12T00:13:53;5.30;99.90
20658;DHT22;10488;50.846;4.078;2023-03-12T00:16:20;5.30;99.90
20658;DHT22;10488;50.846;4.078;2023-03-12T00:18:48;5.30;99.90
20658;DHT22;10488;50.846;4.078;2023-03-12T00:21:14;5.30;99.90
20658;DHT22;10488;50.846;4.078;2023-03-12T00:23:39;5.40;99.90
20658;DHT22;10488;50.846;4.078;2023-03-12T00:26:09;5.30;99.90
20658;DHT22;10488;50.846;4.078;2023-03-12T00:28:36;5.30;99.90
20658;DHT22;10488;50.846;4.078;2023-03-12T00:31:03;5.30;99.90
20658;DHT22;10488;50.846;4.078;2023-03-12T00:33:37;5.20;99.90
20658;DHT22;10488;50.846;4.078;2023-03-12T00:36:03;5.30;99.90
20658;DHT22;10488;50.846;4.078;2023-03-12T00:38:29;5.20;99.90
20658;DHT22;10488;50.846;4.078;2023-03-12T00:40:54;5.10;99.90
20658;DHT22;10488;50.846;4.078;2023-03-12T00:43:20;5.00;99.90
20658;DHT22;10488;50.846;4.078;2023-03-12T00:45:45;5.10;99.90
20658;DHT22;10488;50.846;4.078;2023-03-12T00:48:11;5.10;99.90
20658;DHT22;10488;50.846;4.078;2023-03-12T00:50:36;5.00;99.90
20658;DHT22;10488;50.846;4.078;2023-03-12T00:53:02;4.90;99.90
20658;DHT22;10488;50.846;4.078;2023-03-12T00:55:28;4.80;99.90
20658;DHT22;10488;50.846;4.078;2023-03-12T00:57:54;4.80;99.90
20658;DHT22;10488;50.846;4.078;2023-03-12T01:00:20;4.80;99.90
20658;DHT22;10488;50.846;4.078;2023-03-12T01:02:46;4.80;99.90
20658;DHT22;10488;50.846;4.078;2023-03-12T01:05:13;4.90;99.90
20658;DHT22;10488;50.846;4.078;2023-03-12T01:07:39;4.90;99.90
20658;DHT22;10488;50.846;4.078;2023-03-12T01:10:05;4.90;99.90
20658;DHT22;10488;50.846;4.078;2023-03-12T01:12:31;4.90;99.90
20658;DHT22;10488;50.846;4.078;2023-03-12T01:14:57;4.80;99.90
20658;DHT22;10488;50.846;4.078;2023-03-12T01:17:22;4.80;99.90
20658;DHT22;10488;50.846;4.078;2023-03-12T01:19:48;4.90;99.90
20658;DHT22;10488;50.846;4.078;2023-03-12T01:22:14;4.90;99.90
20658;DHT22;10488;50.846;4.078;2023-03-12T01:24:40;4.90;99.90
20658;DHT22;10488;50.846;4.078;2023-03-12T01:27:06;4.90;99.90
20658;DHT22;10488;50.846;4.078;2023-03-12T01:29:32;4.90;99.90
20658;DHT22;10488;50.846;4.078;2023-03-12T01:31:57;4.90;99.90
20658;DHT22;10488;50.846;4.078;2023-03-12T01:34:23;4.80;99.90
20658;DHT22;10488;50.846;4.078;2023-03-12T01:36:48;4.70;99.90
20658;DHT22;10488;50.846;4.078;2023-03-12T01:39:15;4.80;99.90
20658;DHT22;10488;50.846;4.078;2023-03-12T01:41:41;4.90;99.90
20658;DHT22;10488;50.846;4.078;2023-03-12T01:44:10;4.90;99.90
20658;DHT22;10488;50.846;4.078;2023-03-12T01:46:39;4.90;99.90
20658;DHT22;10488;50.846;4.078;2023-03-12T01:51:53;4.90;99.90
20658;DHT22;10488;50.846;4.078;2023-03-12T01:54:25;4.90;99.90
20658;DHT22;10488;50.846;4.078;2023-03-12T01:56:55;4.90;99.90
20658;DHT22;10488;50.846;4.078;2023-03-12T01:59:30;4.90;99.90
20658;DHT22;10488;50.846;4.078;2023-03-12T02:01:57;4.80;99.90
20658;DHT22;10488;50.846;4.078;2023-03-12T02:04:26;4.90;99.90
20658;DHT22;10488;50.846;4.078;2023-03-12T02:07:00;5.00;99.90
20658;DHT22;10488;50.846;4.078;2023-03-12T02:09:27;4.80;99.90
20658;DHT22;10488;50.846;4.078;2023-03-12T02:11:53;4.90;99.90
20658;DHT22;10488;50.846;4.078;2023-03-12T02:14:19;4.90;99.90
20658;DHT22;10488;50.846;4.078;2023-03-12T02:16:45;4.80;99.90
20658;DHT22;10488;50.846;4.078;2023-03-12T02:21:52;4.80;99.90
20658;DHT22;10488;50.846;4.078;2023-03-12T02:24:29;4.80;99.90
20658;DHT22;10488;50.846;4.078;2023-03-12T02:26:58;4.70;99.90
20658;DHT22;10488;50.846;4.078;2023-03-12T02:29:26;4.80;99.90
20658;DHT22;10488;50.846;4.078;2023-03-12T02:31:56;4.90;99.90
20658;DHT22;10488;50.846;4.078;2023-03-12T02:34:23;4.90;99.90
20658;DHT22;10488;50.846;4.078;2023-03-12T02:36:50;4.90;99.90
20658;DHT22;10488;50.846;4.078;2023-03-12T02:39:16;5.10;99.90
20658;DHT22;10488;50.846;4.078;2023-03-12T02:41:47;4.90;99.90
20658;DHT22;10488;50.846;4.078;2023-03-12T02:44:18;4.80;99.90
20658;DHT22;10488;50.846;4.078;2023-03-12T02:46:47;4.80;99.90
20658;DHT22;10488;50.846;4.078;2023-03-12T02:49:15;4.80;99.90
20658;DHT22;10488;50.846;4.078;2023-03-12T02:51:43;4.90;99.90
20658;DHT22;10488;50.846;4.078;2023-03-12T02:54:11;4.90;99.90
20658;DHT22;10488;50.846;4.078;2023-03-12T02:56:38;5.00;99.90
20658;DHT22;10488;50.846;4.078;2023-03-12T02:59:05;5.00;99.90
20658;DHT22;10488;50.846;4.078;2023-03-12T03:01:30;5.00;99.90
20658;DHT22;10488;50.846;4.078;2023-03-12T03:04:00;5.00;99.90
20658;DHT22;10488;50.846;4.078;2023-03-12T03:06:26;5.00;99.90
20658;DHT22;10488;50.846;4.078;2023-03-12T03:08:53;5.10;99.90
20658;DHT22;10488;50.846;4.078;2023-03-12T03:11:19;5.10;99.90
20658;DHT22;10488;50.846;4.078;2023-03-12T03:13:50;5.20;99.90
20658;DHT22;10488;50.846;4.078;2023-03-12T03:16:16;5.20;99.90
20658;DHT22;10488;50.846;4.078;2023-03-12T03:18:42;5.20;99.90
20658;DHT22;10488;50.846;4.078;2023-03-12T03:21:09;5.20;99.90
20658;DHT22;10488;50.846;4.078;2023-03-12T03:23:35;5.10;99.90
20658;DHT22;10488;50.846;4.078;2023-03-12T03:26:02;5.20;99.90
20658;DHT22;10488;50.846;4.078;2023-03-12T03:28:29;5.20;99.90
20658;DHT22;10488;50.846;4.078;2023-03-12T03:30:55;5.00;99.90
20658;DHT22;10488;50.846;4.078;2023-03-12T03:33:31;5.10;99.90
20658;DHT22;10488;50.846;4.078;2023-03-12T03:35:58;5.00;99.90
20658;DHT22;10488;50.846;4.078;2023-03-12T03:38:25;5.00;99.90
20658;DHT22;10488;50.846;4.078;2023-03-12T03:40:51;5.00;99.90
20658;DHT22;10488;50.846;4.078;2023-03-12T03:43:17;5.00;99.90
20658;DHT22;10488;50.846;4.078;2023-03-12T03:45:43;5.00;99.90
20658;DHT22;10488;50.846;4.078;2023-03-12T03:48:10;5.10;99.90
20658;DHT22;10488;50.846;4.078;2023-03-12T03:50:37;5.00;99.90
20658;DHT22;10488;50.846;4.078;2023-03-12T03:53:03;5.20;99.90
20658;DHT22;10488;50.846;4.078;2023-03-12T03:55:29;5.20;99.90
20658;DHT22;10488;50.846;4.078;2023-03-12T03:57:54;5.20;99.90
20658;DHT22;10488;50.846;4.078;2023-03-12T04:00:20;5.40;99.90
20658;DHT22;10488;50.846;4.078;2023-03-12T04:02:46;5.30;99.90
20658;DHT22;10488;50.846;4.078;2023-03-12T04:05:12;5.30;99.90
20658;DHT22;10488;50.846;4.078;2023-03-12T04:07:40;5.20;99.90
20658;DHT22;10488;50.846;4.078;2023-03-12T04:10:06;5.30;99.90
20658;DHT22;10488;50.846;4.078;2023-03-12T04:12:32;5.10;99.90
20658;DHT22;10488;50.846;4.078;2023-03-12T04:15:00;5.10;99.90
20658;DHT22;10488;50.846;4.078;2023-03-12T04:17:25;5.00;99.90
20658;DHT22;10488;50.846;4.078;2023-03-12T04:19:51;5.10;99.90
20658;DHT22;10488;50.846;4.078;2023-03-12T04:22:17;5.20;99.90
20658;DHT22;10488;50.846;4.078;2023-03-12T04:24:42;5.20;99.90
20658;DHT22;10488;50.846;4.078;2023-03-12T04:27:09;5.30;99.90
20658;DHT22;10488;50.846;4.078;2023-03-12T04:29:34;5.20;99.90
20658;DHT22;10488;50.846;4.078;2023-03-12T04:32:00;5.10;99.90
20658;DHT22;10488;50.846;4.078;2023-03-12T04:34:26;5.10;99.90
20658;DHT22;10488;50.846;4.078;2023-03-12T04:36:51;5.10;99.90
20658;DHT22;10488;50.846;4.078;2023-03-12T04:39:18;5.20;99.90
20658;DHT22;10488;50.846;4.078;2023-03-12T04:41:44;5.20;99.90
20658;DHT22;10488;50.846;4.078;2023-03-12T04:44:10;5.30;99.90
20658;DHT22;10488;50.846;4.078;2023-03-12T04:46:35;5.40;99.90
20658;DHT22;10488;50.846;4.078;2023-03-12T04:49:02;5.40;99.90
20658;DHT22;10488;50.846;4.078;2023-03-12T04:51:28;5.60;99.90
20658;DHT22;10488;50.846;4.078;2023-03-12T04:53:54;5.50;99.90
20658;DHT22;10488;50.846;4.078;2023-03-12T04:56:20;5.40;99.90
20658;DHT22;10488;50.846;4.078;2023-03-12T04:58:45;5.40;99.90
20658;DHT22;10488;50.846;4.078;2023-03-12T05:01:24;5.40;99.90
20658;DHT22;10488;50.846;4.078;2023-03-12T05:03:51;5.40;99.90
20658;DHT22;10488;50.846;4.078;2023-03-12T05:06:16;5.50;99.90
20658;DHT22;10488;50.846;4.078;2023-03-12T05:08:42;5.40;99.90
20658;DHT22;10488;50.846;4.078;2023-03-12T05:11:10;5.40;99.90
20658;DHT22;10488;50.846;4.078;2023-03-12T05:13:36;5.40;99.90
20658;DHT22;10488;50.846;4.078;2023-03-12T05:16:01;5.40;99.90
20658;DHT22;10488;50.846;4.078;2023-03-12T05:18:27;5.50;99.90
20658;DHT22;10488;50.846;4.078;2023-03-12T05:20:59;5.60;99.90
20658;DHT22;10488;50.846;4.078;2023-03-12T05:23:25;5.60;99.90
20658;DHT22;10488;50.846;4.078;2023-03-12T05:25:52;5.60;99.90
20658;DHT22;10488;50.846;4.078;2023-03-12T05:28:18;5.70;99.90
20658;DHT22;10488;50.846;4.078;2023-03-12T05:30:45;5.80;99.90
20658;DHT22;10488;50.846;4.078;2023-03-12T05:33:11;5.90;99.90
20658;DHT22;10488;50.846;4.078;2023-03-12T05:35:36;5.90;99.90
20658;DHT22;10488;50.846;4.078;2023-03-12T05:38:02;5.90;99.90
20658;DHT22;10488;50.846;4.078;2023-03-12T05:40:28;5.90;99.90
20658;DHT22;10488;50.846;4.078;2023-03-12T05:42:54;6.00;99.90
20658;DHT22;10488;50.846;4.078;2023-03-12T05:45:20;6.10;99.90
20658;DHT22;10488;50.846;4.078;2023-03-12T05:47:46;6.10;99.90
20658;DHT22;10488;50.846;4.078;2023-03-12T05:50:12;6.20;99.90
20658;DHT22;10488;50.846;4.078;2023-03-12T05:52:38;6.20;99.90
20658;DHT22;10488;50.846;4.078;2023-03-12T05:55:03;6.10;99.90
20658;DHT22;10488;50.846;4.078;2023-03-12T05:57:29;6.10;99.90
20658;DHT22;10488;50.846;4.078;2023-03-12T05:59:55;6.10;99.90
20658;DHT22;10488;50.846;4.078;2023-03-12T06:02:20;6.20;99.90
20658;DHT22;10488;50.846;4.078;2023-03-12T06:04:47;6.20;99.90
20658;DHT22;10488;50.846;4.078;2023-03-12T06:07:12;6.30;99.90
20658;DHT22;10488;50.846;4.078;2023-03-12T06:09:38;6.30;99.90
20658;DHT22;10488;50.846;4.078;2023-03-12T06:12:04;6.30;99.90
20658;DHT22;10488;50.846;4.078;2023-03-12T06:14:30;6.40;99.90
20658;DHT22;10488;50.846;4.078;2023-03-12T06:16:55;6.40;99.90
20658;DHT22;10488;50.846;4.078;2023-03-12T06:19:21;6.40;99.90
20658;DHT22;10488;50.846;4.078;2023-03-12T06:21:46;6.50;99.90
20658;DHT22;10488;50.846;4.078;2023-03-12T06:24:13;6.50;99.90
20658;DHT22;10488;50.846;4.078;2023-03-12T06:26:39;6.50;99.90
20658;DHT22;10488;50.846;4.078;2023-03-12T06:29:06;6.60;99.90
20658;DHT22;10488;50.846;4.078;2023-03-12T06:31:31;6.70;99.90
20658;DHT22;10488;50.846;4.078;2023-03-12T06:33:57;6.70;99.90
20658;DHT22;10488;50.846;4.078;2023-03-12T06:36:23;6.70;99.90
20658;DHT22;10488;50.846;4.078;2023-03-12T06:38:49;6.90;99.90
20658;DHT22;10488;50.846;4.078;2023-03-12T06:41:16;7.00;99.90
20658;DHT22;10488;50.846;4.078;2023-03-12T06:43:43;7.00;99.90
20658;DHT22;10488;50.846;4.078;2023-03-12T06:46:12;7.10;99.90
20658;DHT22;10488;50.846;4.078;2023-03-12T06:48:42;7.30;99.90
20658;DHT22;10488;50.846;4.078;2023-03-12T06:51:09;7.40;99.90
20658;DHT22;10488;50.846;4.078;2023-03-12T06:53:36;7.50;99.90
20658;DHT22;10488;50.846;4.078;2023-03-12T06:56:03;7.60;99.90
20658;DHT22;10488;50.846;4.078;2023-03-12T06:58:30;7.60;99.90
20658;DHT22;10488;50.846;4.078;2023-03-12T07:00:56;7.70;99.90
20658;DHT22;10488;50.846;4.078;2023-03-12T07:03:21;7.60;99.90
20658;DHT22;10488;50.846;4.078;2023-03-12T07:05:48;7.70;99.90
20658;DHT22;10488;50.846;4.078;2023-03-12T07:08:14;7.60;99.90
20658;DHT22;10488;50.846;4.078;2023-03-12T07:10:41;7.70;99.90
20658;DHT22;10488;50.846;4.078;2023-03-12T07:13:07;7.80;99.90
20658;DHT22;10488;50.846;4.078;2023-03-12T07:15:33;7.80;99.90
20658;DHT22;10488;50.846;4.078;2023-03-12T07:18:03;7.90;99.90
20658;DHT22;10488;50.846;4.078;2023-03-12T07:20:29;7.90;99.90
20658;DHT22;10488;50.846;4.078;2023-03-12T07:22:55;8.00;99.90
20658;DHT22;10488;50.846;4.078;2023-03-12T07:25:20;8.10;99.90
20658;DHT22;10488;50.846;4.078;2023-03-12T07:27:46;8.40;99.90
20658;DHT22;10488;50.846;4.078;2023-03-12T07:30:12;8.40;99.90
20658;DHT22;10488;50.846;4.078;2023-03-12T07:32:37;8.40;99.90
20658;DHT22;10488;50.846;4.078;2023-03-12T07:35:04;8.30;99.90
20658;DHT22;10488;50.846;4.078;2023-03-12T07:37:30;8.40;99.90
20658;DHT22;10488;50.846;4.078;2023-03-12T07:39:55;8.50;99.90
20658;DHT22;10488;50.846;4.078;2023-03-12T07:42:21;8.40;99.90
20658;DHT22;10488;50.846;4.078;2023-03-12T07:44:47;8.60;99.90
20658;DHT22;10488;50.846;4.078;2023-03-12T07:47:13;8.60;99.90
20658;DHT22;10488;50.846;4.078;2023-03-12T07:49:38;8.80;99.90
20658;DHT22;10488;50.846;4.078;2023-03-12T07:52:06;8.90;99.90
20658;DHT22;10488;50.846;4.078;2023-03-12T07:54:35;8.90;99.90
20658;DHT22;10488;50.846;4.078;2023-03-12T07:57:01;9.10;99.90
20658;DHT22;10488;50.846;4.078;2023-03-12T07:59:27;9.30;99.90
20658;DHT22;10488;50.846;4.078;2023-03-12T08:01:53;9.40;99.90
20658;DHT22;10488;50.846;4.078;2023-03-12T08:04:18;9.40;99.90
20658;DHT22;10488;50.846;4.078;2023-03-12T08:06:44;9.50;99.90
20658;DHT22;10488;50.846;4.078;2023-03-12T08:09:10;9.70;99.90
20658;DHT22;10488;50.846;4.078;2023-03-12T08:11:36;9.50;99.90
20658;DHT22;10488;50.846;4.078;2023-03-12T08:14:03;9.70;99.90
20658;DHT22;10488;50.846;4.078;2023-03-12T08:16:29;9.80;99.90
20658;DHT22;10488;50.846;4.078;2023-03-12T08:18:55;9.80;99.90
20658;DHT22;10488;50.846;4.078;2023-03-12T08:21:20;10.10;99.90
20658;DHT22;10488;50.846;4.078;2023-03-12T08:23:46;10.30;99.90
20658;DHT22;10488;50.846;4.078;2023-03-12T08:26:12;10.30;99.90
20658;DHT22;10488;50.846;4.078;2023-03-12T08:28:37;10.50;99.90
20658;DHT22;10488;50.846;4.078;2023-03-12T08:31:03;10.90;99.90
20658;DHT22;10488;50.846;4.078;2023-03-12T08:33:29;10.80;99.90
20658;DHT22;10488;50.846;4.078;2023-03-12T08:35:55;10.90;99.90
20658;DHT22;10488;50.846;4.078;2023-03-12T08:38:21;11.10;99.90
20658;DHT22;10488;50.846;4.078;2023-03-12T08:40:54;11.10;99.90
20658;DHT22;10488;50.846;4.078;2023-03-12T08:43:20;11.10;99.90
20658;DHT22;10488;50.846;4.078;2023-03-12T08:45:45;11.10;99.90
20658;DHT22;10488;50.846;4.078;2023-03-12T08:48:11;11.40;99.90
20658;DHT22;10488;50.846;4.078;2023-03-12T08:50:37;11.30;99.90
20658;DHT22;10488;50.846;4.078;2023-03-12T08:53:03;11.30;99.90
20658;DHT22;10488;50.846;4.078;2023-03-12T08:55:29;11.50;99.90
20658;DHT22;10488;50.846;4.078;2023-03-12T08:57:55;11.60;99.90
20658;DHT22;10488;50.846;4.078;2023-03-12T09:00:21;11.70;99.90
20658;DHT22;10488;50.846;4.078;2023-03-12T09:02:46;11.80;99.90
20658;DHT22;10488;50.846;4.078;2023-03-12T09:05:13;11.80;99.90
20658;DHT22;10488;50.846;4.078;2023-03-12T09:07:38;11.90;99.90
20658;DHT22;10488;50.846;4.078;2023-03-12T09:10:06;12.20;99.90
20658;DHT22;10488;50.846;4.078;2023-03-12T09:12:32;12.30;99.90
20658;DHT22;10488;50.846;4.078;2023-03-12T09:14:58;12.50;99.90
20658;DHT22;10488;50.846;4.078;2023-03-12T09:17:23;12.50;99.90
20658;DHT22;10488;50.846;4.078;2023-03-12T09:19:49;12.30;99.90
20658;DHT22;10488;50.846;4.078;2023-03-12T09:22:14;12.50;99.90
20658;DHT22;10488;50.846;4.078;2023-03-12T09:24:41;12.70;99.90
20658;DHT22;10488;50.846;4.078;2023-03-12T09:27:07;12.70;99.90
20658;DHT22;10488;50.846;4.078;2023-03-12T09:29:32;12.60;99.90
20658;DHT22;10488;50.846;4.078;2023-03-12T09:31:58;12.60;99.90
20658;DHT22;10488;50.846;4.078;2023-03-12T09:34:24;12.70;99.90
20658;DHT22;10488;50.846;4.078;2023-03-12T09:36:49;12.60;99.90
20658;DHT22;10488;50.846;4.078;2023-03-12T09:39:16;12.80;99.90
20658;DHT22;10488;50.846;4.078;2023-03-12T09:41:43;13.00;99.90
20658;DHT22;10488;50.846;4.078;2023-03-12T09:46:56;13.20;99.90
20658;DHT22;10488;50.846;4.078;2023-03-12T09:51:52;13.50;99.90
20658;DHT22;10488;50.846;4.078;2023-03-12T09:54:30;13.10;99.90
20658;DHT22;10488;50.846;4.078;2023-03-12T09:57:02;12.90;99.90
20658;DHT22;10488;50.846;4.078;2023-03-12T09:59:28;12.90;99.90
20658;DHT22;10488;50.846;4.078;2023-03-12T10:01:58;12.90;99.90
20658;DHT22;10488;50.846;4.078;2023-03-12T10:04:45;12.90;99.90
20658;DHT22;10488;50.846;4.078;2023-03-12T10:07:31;12.70;99.90
20658;DHT22;10488;50.846;4.078;2023-03-12T10:13:10;12.70;99.90
20658;DHT22;10488;50.846;4.078;2023-03-12T10:24:27;13.50;99.90
20658;DHT22;10488;50.846;4.078;2023-03-12T10:26:35;13.70;99.90
20658;DHT22;10488;50.846;4.078;2023-03-12T10:29:09;13.70;99.90
20658;DHT22;10488;50.846;4.078;2023-03-12T10:32:06;13.90;99.90
20658;DHT22;10488;50.846;4.078;2023-03-12T10:37:30;13.90;99.90
20658;DHT22;10488;50.846;4.078;2023-03-12T10:39:57;13.70;99.90
20658;DHT22;10488;50.846;4.078;2023-03-12T10:42:28;13.90;99.90
20658;DHT22;10488;50.846;4.078;2023-03-12T10:45:06;14.00;99.90
20658;DHT22;10488;50.846;4.078;2023-03-12T10:47:41;14.20;99.90
20658;DHT22;10488;50.846;4.078;2023-03-12T10:50:20;14.10;99.90
20658;DHT22;10488;50.846;4.078;2023-03-12T10:52:48;14.30;99.90
20658;DHT22;10488;50.846;4.078;2023-03-12T10:55:25;14.30;99.90
20658;DHT22;10488;50.846;4.078;2023-03-12T10:57:52;14.40;99.90
20658;DHT22;10488;50.846;4.078;2023-03-12T11:00:26;14.30;99.90
20658;DHT22;10488;50.846;4.078;2023-03-12T11:03:03;13.90;99.90
20658;DHT22;10488;50.846;4.078;2023-03-12T11:05:57;13.90;99.90
20658;DHT22;10488;50.846;4.078;2023-03-12T11:10:54;13.80;99.90
20658;DHT22;10488;50.846;4.078;2023-03-12T11:13:30;13.80;99.90
20658;DHT22;10488;50.846;4.078;2023-03-12T11:16:02;13.90;99.90
20658;DHT22;10488;50.846;4.078;2023-03-12T11:18:55;13.70;99.90
20658;DHT22;10488;50.846;4.078;2023-03-12T11:21:22;13.80;99.90
20658;DHT22;10488;50.846;4.078;2023-03-12T11:29:09;13.70;99.90
20658;DHT22;10488;50.846;4.078;2023-03-12T11:31:47;13.80;99.90
20658;DHT22;10488;50.846;4.078;2023-03-12T11:34:21;14.00;99.90
20658;DHT22;10488;50.846;4.078;2023-03-12T11:42:14;14.10;99.90
20658;DHT22;10488;50.846;4.078;2023-03-12T11:47:34;14.10;99.90
20658;DHT22;10488;50.846;4.078;2023-03-12T11:53:06;13.50;99.90
20658;DHT22;10488;50.846;4.078;2023-03-12T12:01:09;14.00;99.90
20658;DHT22;10488;50.846;4.078;2023-03-12T12:15:38;14.40;99.90
20658;DHT22;10488;50.846;4.078;2023-03-12T12:18:32;14.50;99.90
20658;DHT22;10488;50.846;4.078;2023-03-12T12:21:14;14.80;99.90
20658;DHT22;10488;50.846;4.078;2023-03-12T12:26:34;14.10;99.90
20658;DHT22;10488;50.846;4.078;2023-03-12T12:31:57;14.20;99.90
20658;DHT22;10488;50.846;4.078;2023-03-12T12:37:21;14.40;99.90
20658;DHT22;10488;50.846;4.078;2023-03-12T12:40:10;14.40;99.90
20658;DHT22;10488;50.846;4.078;2023-03-12T12:45:37;14.00;99.90
20658;DHT22;10488;50.846;4.078;2023-03-12T12:50:55;14.30;99.90
20658;DHT22;10488;50.846;4.078;2023-03-12T12:53:39;14.20;99.90
20658;DHT22;10488;50.846;4.078;2023-03-12T12:56:12;14.10;99.90
20658;DHT22;10488;50.846;4.078;2023-03-12T12:59:07;14.00;99.90
20658;DHT22;10488;50.846;4.078;2023-03-12T13:01:38;14.20;99.90
20658;DHT22;10488;50.846;4.078;2023-03-12T13:04:15;14.40;99.90
20658;DHT22;10488;50.846;4.078;2023-03-12T13:07:03;14.00;99.90
20658;DHT22;10488;50.846;4.078;2023-03-12T13:09:52;14.10;99.90
20658;DHT22;10488;50.846;4.078;2023-03-12T13:14:54;13.90;99.90
20658;DHT22;10488;50.846;4.078;2023-03-12T13:17:34;13.70;99.90
20658;DHT22;10488;50.846;4.078;2023-03-12T13:23:04;14.10;99.90
20658;DHT22;10488;50.846;4.078;2023-03-12T13:26:13;14.30;99.90
20658;DHT22;10488;50.846;4.078;2023-03-12T13:28:55;14.40;99.90
20658;DHT22;10488;50.846;4.078;2023-03-12T13:33:57;14.60;99.90
20658;DHT22;10488;50.846;4.078;2023-03-12T13:36:26;14.30;99.90
20658;DHT22;10488;50.846;4.078;2023-03-12T13:39:45;13.80;99.90
20658;DHT22;10488;50.846;4.078;2023-03-12T13:41:48;13.40;99.90
20658;DHT22;10488;50.846;4.078;2023-03-12T13:52:39;13.40;99.90
20658;DHT22;10488;50.846;4.078;2023-03-12T13:57:48;13.80;99.90
20658;DHT22;10488;50.846;4.078;2023-03-12T14:00:25;13.80;99.90
20658;DHT22;10488;50.846;4.078;2023-03-12T14:06:19;13.50;99.90
20658;DHT22;10488;50.846;4.078;2023-03-12T14:11:46;13.40;99.90
20658;DHT22;10488;50.846;4.078;2023-03-12T14:16:50;13.60;99.90
20658;DHT22;10488;50.846;4.078;2023-03-12T14:19:19;13.50;99.90
20658;DHT22;10488;50.846;4.078;2023-03-12T14:21:50;13.60;99.90
20658;DHT22;10488;50.846;4.078;2023-03-12T14:24:38;13.60;99.90
20658;DHT22;10488;50.846;4.078;2023-03-12T14:27:14;13.80;99.90
20658;DHT22;10488;50.846;4.078;2023-03-12T14:29:45;13.90;99.90
20658;DHT22;10488;50.846;4.078;2023-03-12T14:32:17;14.00;99.90
20658;DHT22;10488;50.846;4.078;2023-03-12T14:34:53;14.20;99.90
20658;DHT22;10488;50.846;4.078;2023-03-12T14:37:39;14.20;99.90
20658;DHT22;10488;50.846;4.078;2023-03-12T14:40:35;14.20;99.90
20658;DHT22;10488;50.846;4.078;2023-03-12T14:43:39;14.00;99.90
20658;DHT22;10488;50.846;4.078;2023-03-12T14:46:16;14.00;99.90
20658;DHT22;10488;50.846;4.078;2023-03-12T14:48:42;13.80;99.90
20658;DHT22;10488;50.846;4.078;2023-03-12T14:51:22;14.00;99.90
20658;DHT22;10488;50.846;4.078;2023-03-12T14:53:48;13.90;99.90
20658;DHT22;10488;50.846;4.078;2023-03-12T14:56:22;13.90;99.90
20658;DHT22;10488;50.846;4.078;2023-03-12T14:58:50;13.60;99.90
20658;DHT22;10488;50.846;4.078;2023-03-12T15:01:34;13.70;99.90
20658;DHT22;10488;50.846;4.078;2023-03-12T15:04:13;13.50;99.90
20658;DHT22;10488;50.846;4.078;2023-03-12T15:06:46;13.40;99.90
20658;DHT22;10488;50.846;4.078;2023-03-12T15:09:20;13.50;99.90
20658;DHT22;10488;50.846;4.078;2023-03-12T15:12:20;13.40;99.90
20658;DHT22;10488;50.846;4.078;2023-03-12T15:14:49;13.30;99.90
20658;DHT22;10488;50.846;4.078;2023-03-12T15:17:19;13.30;99.90
20658;DHT22;10488;50.846;4.078;2023-03-12T15:19:47;13.40;99.90
20658;DHT22;10488;50.846;4.078;2023-03-12T15:22:19;13.50;99.90
20658;DHT22;10488;50.846;4.078;2023-03-12T15:24:46;13.60;99.90
20658;DHT22;10488;50.846;4.078;2023-03-12T15:27:20;13.60;99.90
20658;DHT22;10488;50.846;4.078;2023-03-12T15:29:48;13.70;99.90
20658;DHT22;10488;50.846;4.078;2023-03-12T15:32:16;13.50;99.90
20658;DHT22;10488;50.846;4.078;2023-03-12T15:34:45;13.50;99.90
20658;DHT22;10488;50.846;4.078;2023-03-12T15:37:37;13.40;99.90
20658;DHT22;10488;50.846;4.078;2023-03-12T15:40:25;13.30;99.90
20658;DHT22;10488;50.846;4.078;2023-03-12T15:42:51;13.20;99.90
20658;DHT22;10488;50.846;4.078;2023-03-12T15:47:59;13.10;99.90
20658;DHT22;10488;50.846;4.078;2023-03-12T15:50:40;13.00;99.90
20658;DHT22;10488;50.846;4.078;2023-03-12T15:53:30;13.00;99.90
20658;DHT22;10488;50.846;4.078;2023-03-12T15:58:29;13.10;99.90
20658;DHT22;10488;50.846;4.078;2023-03-12T16:03:32;12.80;99.90
20658;DHT22;10488;50.846;4.078;2023-03-12T16:05:58;13.00;99.90
20658;DHT22;10488;50.846;4.078;2023-03-12T16:08:38;12.90;99.90
20658;DHT22;10488;50.846;4.078;2023-03-12T16:11:14;13.00;99.90
20658;DHT22;10488;50.846;4.078;2023-03-12T16:13:41;13.00;99.90
20658;DHT22;10488;50.846;4.078;2023-03-12T16:16:11;13.10;99.90
20658;DHT22;10488;50.846;4.078;2023-03-12T16:18:37;12.90;99.90
20658;DHT22;10488;50.846;4.078;2023-03-12T16:21:03;12.80;99.90
20658;DHT22;10488;50.846;4.078;2023-03-12T16:23:29;12.80;99.90
20658;DHT22;10488;50.846;4.078;2023-03-12T16:25:55;12.80;99.90
20658;DHT22;10488;50.846;4.078;2023-03-12T16:28:23;12.80;99.90
20658;DHT22;10488;50.846;4.078;2023-03-12T16:30:50;12.70;99.90
20658;DHT22;10488;50.846;4.078;2023-03-12T16:33:18;12.90;99.90
20658;DHT22;10488;50.846;4.078;2023-03-12T16:35:44;12.80;99.90
20658;DHT22;10488;50.846;4.078;2023-03-12T16:38:10;12.90;99.90
20658;DHT22;10488;50.846;4.078;2023-03-12T16:40:44;12.80;99.90
20658;DHT22;10488;50.846;4.078;2023-03-12T16:43:18;12.90;99.90
20658;DHT22;10488;50.846;4.078;2023-03-12T16:45:46;12.90;99.90
20658;DHT22;10488;50.846;4.078;2023-03-12T16:48:15;12.70;99.90
20658;DHT22;10488;50.846;4.078;2023-03-12T16:50:46;12.70;99.90
20658;DHT22;10488;50.846;4.078;2023-03-12T16:53:12;12.70;99.90
20658;DHT22;10488;50.846;4.078;2023-03-12T16:55:55;12.60;99.90
20658;DHT22;10488;50.846;4.078;2023-03-12T16:58:24;12.60;99.90
20658;DHT22;10488;50.846;4.078;2023-03-12T17:00:53;12.30;99.90
20658;DHT22;10488;50.846;4.078;2023-03-12T17:03:38;12.50;99.90
20658;DHT22;10488;50.846;4.078;2023-03-12T17:06:06;12.30;99.90
20658;DHT22;10488;50.846;4.078;2023-03-12T17:08:31;12.40;99.90
20658;DHT22;10488;50.846;4.078;2023-03-12T17:10:58;12.30;99.90
20658;DHT22;10488;50.846;4.078;2023-03-12T17:13:28;12.20;99.90
20658;DHT22;10488;50.846;4.078;2023-03-12T17:15:54;12.20;99.90
20658;DHT22;10488;50.846;4.078;2023-03-12T17:18:20;12.10;99.90
20658;DHT22;10488;50.846;4.078;2023-03-12T17:20:47;12.00;99.90
20658;DHT22;10488;50.846;4.078;2023-03-12T17:23:13;11.90;99.90
20658;DHT22;10488;50.846;4.078;2023-03-12T17:25:41;11.90;99.90
20658;DHT22;10488;50.846;4.078;2023-03-12T17:28:07;12.00;99.90
20658;DHT22;10488;50.846;4.078;2023-03-12T17:30:34;11.90;99.90
20658;DHT22;10488;50.846;4.078;2023-03-12T17:33:10;12.00;99.90
20658;DHT22;10488;50.846;4.078;2023-03-12T17:35:35;11.90;99.90
20658;DHT22;10488;50.846;4.078;2023-03-12T17:38:01;11.90;99.90
20658;DHT22;10488;50.846;4.078;2023-03-12T17:40:27;12.00;99.90
20658;DHT22;10488;50.846;4.078;2023-03-12T17:42:54;11.90;99.90
20658;DHT22;10488;50.846;4.078;2023-03-12T17:45:20;12.00;99.90